createdAt,value
2022-11-05T00:00:48.623Z,1001.36
2022-11-05T00:01:48.670Z,1001.35
2022-11-05T00:02:48.581Z,1001.33
2022-11-05T00:03:48.648Z,1001.33
2022-11-05T00:04:48.581Z,1001.32
2022-11-05T00:05:48.557Z,1001.33
2022-11-05T00:06:48.536Z,1001.34
2022-11-05T00:07:48.542Z,1001.35
2022-11-05T00:08:48.527Z,1001.34
2022-11-05T00:09:48.552Z,1001.34
2022-11-05T00:10:48.503Z,1001.34
2022-11-05T00:11:48.501Z,1001.34
2022-11-05T00:12:48.474Z,1001.37
2022-11-05T00:13:48.526Z,1001.39
2022-11-05T00:14:48.477Z,1001.42
2022-11-05T00:15:48.497Z,1001.46
2022-11-05T00:16:48.428Z,1001.49
2022-11-05T00:17:48.424Z,1001.49
2022-11-05T00:18:48.431Z,1001.51
2022-11-05T00:19:48.414Z,1001.52
2022-11-05T00:20:48.648Z,1001.52
2022-11-05T00:21:48.391Z,1001.53
2022-11-05T00:22:48.374Z,1001.54
2022-11-05T00:23:48.378Z,1001.54
2022-11-05T00:24:48.338Z,1001.54
2022-11-05T00:25:48.361Z,1001.54
2022-11-05T00:26:48.327Z,1001.55
2022-11-05T00:27:48.333Z,1001.56
2022-11-05T00:28:48.307Z,1001.56
2022-11-05T00:29:48.303Z,1001.55
2022-11-05T00:30:48.299Z,1001.55
2022-11-05T00:31:48.319Z,1001.55
2022-11-05T00:32:48.262Z,1001.56
2022-11-05T00:33:48.264Z,1001.55
2022-11-05T00:34:48.248Z,1001.56
2022-11-05T00:35:48.244Z,1001.58
2022-11-05T00:36:48.244Z,1001.60
2022-11-05T00:37:50.223Z,1001.61
2022-11-05T00:38:48.198Z,1001.59
2022-11-05T00:39:48.207Z,1001.57
2022-11-05T00:40:48.182Z,1001.55
2022-11-05T00:41:48.175Z,1001.55
2022-11-05T00:42:48.161Z,1001.57
2022-11-05T00:43:48.165Z,1001.59
2022-11-05T00:44:48.153Z,1001.60
2022-11-05T00:45:48.137Z,1001.61
2022-11-05T00:46:48.196Z,1001.61
2022-11-05T00:47:48.132Z,1001.60
2022-11-05T00:48:48.095Z,1001.61
2022-11-05T00:49:48.090Z,1001.61
2022-11-05T00:50:48.082Z,1001.61
2022-11-05T00:51:48.075Z,1001.62
2022-11-05T00:52:48.068Z,1001.62
2022-11-05T00:53:48.060Z,1001.63
2022-11-05T00:54:48.035Z,1001.63
2022-11-05T00:55:48.037Z,1001.63
2022-11-05T00:56:48.029Z,1001.64
2022-11-05T00:57:48.013Z,1001.63
2022-11-05T00:58:48.001Z,1001.64
2022-11-05T00:59:47.996Z,1001.65
2022-11-05T01:00:48.000Z,1001.67
2022-11-05T01:01:48.075Z,1001.68
2022-11-05T01:02:48.136Z,1001.68
2022-11-05T01:03:51.716Z,1001.67
2022-11-05T01:04:47.934Z,1001.67
2022-11-05T01:05:47.927Z,1001.67
2022-11-05T01:06:47.929Z,1001.67
2022-11-05T01:07:47.909Z,1001.67
2022-11-05T01:08:47.884Z,1001.66
2022-11-05T01:09:47.879Z,1001.66
2022-11-05T01:10:47.881Z,1001.67
2022-11-05T01:11:47.882Z,1001.67
2022-11-05T01:12:47.850Z,1001.68
2022-11-05T01:13:47.846Z,1001.70
2022-11-05T01:14:47.823Z,1001.73
2022-11-05T01:15:47.825Z,1001.73
2022-11-05T01:16:47.803Z,1001.72
2022-11-05T01:17:47.801Z,1001.72
2022-11-05T01:18:47.797Z,1001.72
2022-11-05T01:19:47.845Z,1001.72
2022-11-05T01:20:47.765Z,1001.70
2022-11-05T01:21:47.778Z,1001.69
2022-11-05T01:22:47.767Z,1001.68
2022-11-05T01:23:47.805Z,1001.68
2022-11-05T01:24:47.718Z,1001.69
2022-11-05T01:25:47.721Z,1001.70
2022-11-05T01:26:47.749Z,1001.70
2022-11-05T01:27:47.712Z,1001.69
2022-11-05T01:28:47.731Z,1001.70
2022-11-05T01:29:47.682Z,1001.71
2022-11-05T01:30:47.657Z,1001.74
2022-11-05T01:31:47.662Z,1001.78
2022-11-05T01:32:47.628Z,1001.81
2022-11-05T01:33:47.669Z,1001.84
2022-11-05T01:34:47.626Z,1001.84
2022-11-05T01:35:47.641Z,1001.85
2022-11-05T01:36:47.627Z,1001.86
2022-11-05T01:37:47.595Z,1001.87
2022-11-05T01:38:47.608Z,1001.88
2022-11-05T01:39:47.575Z,1001.90
2022-11-05T01:40:47.549Z,1001.91
2022-11-05T01:41:47.540Z,1001.91
2022-11-05T01:42:47.570Z,1001.91
2022-11-05T01:43:47.569Z,1001.92
2022-11-05T01:44:47.539Z,1001.94
2022-11-05T01:45:47.506Z,1001.94
2022-11-05T01:46:47.489Z,1001.94
2022-11-05T01:47:47.490Z,1001.93
2022-11-05T01:48:47.469Z,1001.92
2022-11-05T01:49:47.481Z,1001.91
2022-11-05T01:50:47.537Z,1001.91
2022-11-05T01:51:47.440Z,1001.90
2022-11-05T01:52:47.427Z,1001.90
2022-11-05T01:53:47.427Z,1001.92
2022-11-05T01:54:47.421Z,1001.97
2022-11-05T01:55:47.407Z,1001.99
2022-11-05T01:56:47.389Z,1002.00
2022-11-05T01:57:47.390Z,1001.99
2022-11-05T01:58:47.392Z,1001.96
2022-11-05T01:59:47.366Z,1001.96
2022-11-05T02:00:47.361Z,1001.95
2022-11-05T02:01:47.492Z,1001.97
2022-11-05T02:02:47.534Z,1001.96
2022-11-05T02:03:47.330Z,1001.97
2022-11-05T02:04:47.294Z,1001.99
2022-11-05T02:05:47.314Z,1002.02
2022-11-05T02:06:47.290Z,1002.03
2022-11-05T02:07:47.288Z,1002.04
2022-11-05T02:08:47.292Z,1002.02
2022-11-05T02:09:47.251Z,1002.00
2022-11-05T02:10:47.250Z,1002.01
2022-11-05T02:11:47.243Z,1002.00
2022-11-05T02:12:47.241Z,1002.00
2022-11-05T02:13:47.234Z,1002.00
2022-11-05T02:14:47.201Z,1002.01
2022-11-05T02:15:47.202Z,1002.03
2022-11-05T02:16:47.183Z,1002.03
2022-11-05T02:17:47.159Z,1002.03
2022-11-05T02:18:47.168Z,1002.04
2022-11-05T02:19:47.138Z,1002.05
2022-11-05T02:20:51.962Z,1002.04
2022-11-05T02:21:47.132Z,1002.04
2022-11-05T02:22:47.116Z,1002.05
2022-11-05T02:23:47.109Z,1002.04
2022-11-05T02:24:47.112Z,1002.02
2022-11-05T02:25:47.087Z,1002.01
2022-11-05T02:26:47.133Z,1002.03
2022-11-05T02:27:47.070Z,1002.05
2022-11-05T02:28:47.061Z,1002.06
2022-11-05T02:29:47.047Z,1002.08
2022-11-05T02:30:47.044Z,1002.10
2022-11-05T02:31:47.119Z,1002.11
2022-11-05T02:32:47.016Z,1002.12
2022-11-05T02:33:47.002Z,1002.13
2022-11-05T02:34:47.005Z,1002.14
2022-11-05T02:35:46.974Z,1002.15
2022-11-05T02:36:47.006Z,1002.15
2022-11-05T02:37:46.962Z,1002.15
2022-11-05T02:38:46.948Z,1002.15
2022-11-05T02:39:46.942Z,1002.16
2022-11-05T02:40:46.930Z,1002.19
2022-11-05T02:41:46.929Z,1002.19
2022-11-05T02:42:46.906Z,1002.17
2022-11-05T02:43:46.893Z,1002.17
2022-11-05T02:44:46.903Z,1002.18
2022-11-05T02:45:46.878Z,1002.16
2022-11-05T02:46:46.872Z,1002.17
2022-11-05T02:47:46.847Z,1002.16
2022-11-05T02:48:46.854Z,1002.19
2022-11-05T02:49:46.829Z,1002.19
2022-11-05T02:50:46.827Z,1002.19
2022-11-05T02:51:46.821Z,1002.21
2022-11-05T02:52:46.838Z,1002.21
2022-11-05T02:53:46.822Z,1002.24
2022-11-05T02:54:46.782Z,1002.26
2022-11-05T02:55:46.771Z,1002.27
2022-11-05T02:56:46.766Z,1002.24
2022-11-05T02:57:46.745Z,1002.22
2022-11-05T02:58:46.764Z,1002.21
2022-11-05T02:59:46.713Z,1002.20
2022-11-05T03:00:46.727Z,1002.18
2022-11-05T03:01:46.929Z,1002.17
2022-11-05T03:02:46.838Z,1002.17
2022-11-05T03:03:46.698Z,1002.16
2022-11-05T03:04:46.682Z,1002.16
2022-11-05T03:05:46.662Z,1002.16
2022-11-05T03:06:46.664Z,1002.15
2022-11-05T03:07:46.637Z,1002.14
2022-11-05T03:08:46.671Z,1002.12
2022-11-05T03:09:46.626Z,1002.11
2022-11-05T03:10:46.628Z,1002.11
2022-11-05T03:11:46.606Z,1002.11
2022-11-05T03:12:46.614Z,1002.11
2022-11-05T03:13:46.583Z,1002.11
2022-11-05T03:14:46.598Z,1002.11
2022-11-05T03:15:46.561Z,1002.11
2022-11-05T03:16:46.555Z,1002.13
2022-11-05T03:17:46.544Z,1002.14
2022-11-05T03:18:46.541Z,1002.15
2022-11-05T03:19:46.535Z,1002.15
2022-11-05T03:20:46.530Z,1002.14
2022-11-05T03:21:46.501Z,1002.14
2022-11-05T03:22:46.502Z,1002.14
2022-11-05T03:23:46.485Z,1002.14
2022-11-05T03:24:46.509Z,1002.15
2022-11-05T03:25:46.460Z,1002.13
2022-11-05T03:26:46.455Z,1002.12
2022-11-05T03:27:46.420Z,1002.13
2022-11-05T03:28:46.438Z,1002.12
2022-11-05T03:29:46.412Z,1002.11
2022-11-05T03:30:46.423Z,1002.10
2022-11-05T03:31:46.404Z,1002.10
2022-11-05T03:32:46.394Z,1002.09
2022-11-05T03:33:46.370Z,1002.09
2022-11-05T03:34:46.365Z,1002.07
2022-11-05T03:35:46.378Z,1002.06
2022-11-05T03:36:46.352Z,1002.05
2022-11-05T03:37:46.332Z,1002.06
2022-11-05T03:38:46.335Z,1002.09
2022-11-05T03:39:46.312Z,1002.11
2022-11-05T03:40:46.328Z,1002.12
2022-11-05T03:41:46.303Z,1002.14
2022-11-05T03:42:46.286Z,1002.17
2022-11-05T03:43:46.264Z,1002.17
2022-11-05T03:44:46.273Z,1002.17
2022-11-05T03:45:46.248Z,1002.16
2022-11-05T03:46:46.286Z,1002.16
2022-11-05T03:47:46.222Z,1002.16
2022-11-05T03:48:46.297Z,1002.19
2022-11-05T03:49:46.211Z,1002.21
2022-11-05T03:50:46.197Z,1002.21
2022-11-05T03:51:46.194Z,1002.21
2022-11-05T03:52:46.185Z,1002.19
2022-11-05T03:53:46.169Z,1002.19
2022-11-05T03:54:46.155Z,1002.20
2022-11-05T03:55:46.137Z,1002.22
2022-11-05T03:56:46.181Z,1002.23
2022-11-05T03:57:46.120Z,1002.21
2022-11-05T03:58:46.142Z,1002.21
2022-11-05T03:59:46.096Z,1002.22
2022-11-05T04:00:46.117Z,1002.24
2022-11-05T04:01:46.223Z,1002.26
2022-11-05T04:02:46.189Z,1002.28
2022-11-05T04:03:46.057Z,1002.28
2022-11-05T04:04:46.055Z,1002.28
2022-11-05T04:05:46.032Z,1002.29
2022-11-05T04:06:46.038Z,1002.29
2022-11-05T04:07:46.032Z,1002.30
2022-11-05T04:08:46.035Z,1002.31
2022-11-05T04:09:45.997Z,1002.32
2022-11-05T04:10:45.980Z,1002.33
2022-11-05T04:11:45.973Z,1002.33
2022-11-05T04:12:46.000Z,1002.33
2022-11-05T04:13:45.956Z,1002.34
2022-11-05T04:14:45.949Z,1002.35
2022-11-05T04:15:45.934Z,1002.35
2022-11-05T04:16:45.933Z,1002.34
2022-11-05T04:17:45.924Z,1002.34
2022-11-05T04:18:45.929Z,1002.34
2022-11-05T04:19:45.941Z,1002.35
2022-11-05T04:20:45.897Z,1002.37
2022-11-05T04:21:45.894Z,1002.39
2022-11-05T04:22:45.883Z,1002.41
2022-11-05T04:23:45.851Z,1002.43
2022-11-05T04:24:45.842Z,1002.44
2022-11-05T04:25:45.832Z,1002.46
2022-11-05T04:26:45.828Z,1002.46
2022-11-05T04:27:45.799Z,1002.46
2022-11-05T04:28:45.836Z,1002.46
2022-11-05T04:29:45.792Z,1002.48
2022-11-05T04:30:45.782Z,1002.47
2022-11-05T04:31:45.786Z,1002.47
2022-11-05T04:32:45.763Z,1002.48
2022-11-05T04:33:45.745Z,1002.49
2022-11-05T04:34:45.757Z,1002.50
2022-11-05T04:35:45.724Z,1002.51
2022-11-05T04:36:45.728Z,1002.53
2022-11-05T04:37:45.712Z,1002.54
2022-11-05T04:38:45.720Z,1002.54
2022-11-05T04:39:45.685Z,1002.54
2022-11-05T04:40:45.675Z,1002.54
2022-11-05T04:41:45.663Z,1002.53
2022-11-05T04:42:45.657Z,1002.52
2022-11-05T04:43:45.675Z,1002.51
2022-11-05T04:44:45.661Z,1002.53
2022-11-05T04:45:45.626Z,1002.56
2022-11-05T04:46:45.607Z,1002.58
2022-11-05T04:47:45.598Z,1002.58
2022-11-05T04:48:45.592Z,1002.58
2022-11-05T04:49:45.591Z,1002.59
2022-11-05T04:50:45.585Z,1002.58
2022-11-05T04:51:45.577Z,1002.58
2022-11-05T04:52:45.569Z,1002.58
2022-11-05T04:53:45.537Z,1002.59
2022-11-05T04:54:45.546Z,1002.60
2022-11-05T04:55:45.517Z,1002.60
2022-11-05T04:56:45.512Z,1002.61
2022-11-05T04:57:45.500Z,1002.61
2022-11-05T04:58:45.530Z,1002.62
2022-11-05T04:59:45.463Z,1002.62
2022-11-05T05:00:45.539Z,1002.61
2022-11-05T05:01:45.515Z,1002.60
2022-11-05T05:02:45.493Z,1002.60
2022-11-05T05:03:45.453Z,1002.60
2022-11-05T05:04:45.427Z,1002.60
2022-11-05T05:05:45.412Z,1002.61
2022-11-05T05:06:45.410Z,1002.63
2022-11-05T05:07:45.385Z,1002.64
2022-11-05T05:08:45.406Z,1002.64
2022-11-05T05:09:45.425Z,1002.63
2022-11-05T05:10:45.368Z,1002.63
2022-11-05T05:11:45.350Z,1002.65
2022-11-05T05:12:45.371Z,1002.66
2022-11-05T05:13:45.332Z,1002.68
2022-11-05T05:14:45.360Z,1002.69
2022-11-05T05:15:45.329Z,1002.70
2022-11-05T05:16:45.472Z,1002.71
2022-11-05T05:17:45.287Z,1002.73
2022-11-05T05:18:46.512Z,1002.73
2022-11-05T05:19:45.263Z,1002.74
2022-11-05T05:20:45.270Z,1002.76
2022-11-05T05:21:45.360Z,1002.78
2022-11-05T05:22:45.626Z,1002.80
2022-11-05T05:23:45.259Z,1002.83
2022-11-05T05:24:49.987Z,1002.84
2022-11-05T05:25:45.205Z,1002.84
2022-11-05T05:26:45.208Z,1002.84
2022-11-05T05:27:45.197Z,1002.84
2022-11-05T05:28:45.196Z,1002.84
2022-11-05T05:29:45.185Z,1002.84
2022-11-05T05:30:45.341Z,1002.83
2022-11-05T05:31:51.152Z,1002.80
2022-11-05T05:32:45.141Z,1002.80
2022-11-05T05:33:45.115Z,1002.80
2022-11-05T05:34:45.150Z,1002.80
2022-11-05T05:35:45.105Z,1002.82
2022-11-05T05:36:45.096Z,1002.85
2022-11-05T05:37:45.084Z,1002.87
2022-11-05T05:38:45.085Z,1002.89
2022-11-05T05:39:45.071Z,1002.90
2022-11-05T05:40:45.087Z,1002.91
2022-11-05T05:41:45.129Z,1002.90
2022-11-05T05:42:45.044Z,1002.91
2022-11-05T05:43:45.022Z,1002.91
2022-11-05T05:44:45.029Z,1002.92
2022-11-05T05:45:44.998Z,1002.92
2022-11-05T05:46:44.998Z,1002.93
2022-11-05T05:47:44.982Z,1002.93
2022-11-05T05:48:44.974Z,1002.93
2022-11-05T05:49:44.969Z,1002.94
2022-11-05T05:50:44.959Z,1002.95
2022-11-05T05:51:45.008Z,1002.95
2022-11-05T05:52:44.933Z,1002.95
2022-11-05T05:53:44.907Z,1002.96
2022-11-05T05:54:44.929Z,1002.98
2022-11-05T05:55:44.893Z,1002.99
2022-11-05T05:56:44.895Z,1003.01
2022-11-05T05:57:44.884Z,1003.02
2022-11-05T05:58:44.889Z,1003.03
2022-11-05T05:59:44.892Z,1003.04
2022-11-05T06:00:44.846Z,1003.07
2022-11-05T06:01:45.021Z,1003.08
2022-11-05T06:02:44.920Z,1003.09
2022-11-05T06:03:44.817Z,1003.10
2022-11-05T06:04:44.811Z,1003.12
2022-11-05T06:05:44.758Z,1003.12
2022-11-05T06:06:44.738Z,1003.12
2022-11-05T06:07:44.779Z,1003.14
2022-11-05T06:08:44.717Z,1003.15
2022-11-05T06:09:44.695Z,1003.14
2022-11-05T06:10:44.849Z,1003.14
2022-11-05T06:11:44.783Z,1003.16
2022-11-05T06:12:44.663Z,1003.18
2022-11-05T06:13:44.648Z,1003.21
2022-11-05T06:14:44.658Z,1003.25
2022-11-05T06:15:44.649Z,1003.26
2022-11-05T06:16:44.724Z,1003.30
2022-11-05T06:17:44.619Z,1003.32
2022-11-05T06:18:44.683Z,1003.32
2022-11-05T06:19:44.594Z,1003.32
2022-11-05T06:20:44.581Z,1003.33
2022-11-05T06:21:44.614Z,1003.35
2022-11-05T06:22:44.606Z,1003.36
2022-11-05T06:23:44.556Z,1003.36
2022-11-05T06:24:44.551Z,1003.36
2022-11-05T06:25:44.555Z,1003.36
2022-11-05T06:26:44.639Z,1003.39
2022-11-05T06:27:44.513Z,1003.40
2022-11-05T06:28:44.522Z,1003.40
2022-11-05T06:29:44.539Z,1003.40
2022-11-05T06:30:44.472Z,1003.39
2022-11-05T06:31:44.481Z,1003.40
2022-11-05T06:32:44.464Z,1003.41
2022-11-05T06:33:44.476Z,1003.41
2022-11-05T06:34:44.508Z,1003.41
2022-11-05T06:35:44.442Z,1003.41
2022-11-05T06:36:44.483Z,1003.42
2022-11-05T06:37:44.431Z,1003.41
2022-11-05T06:38:44.402Z,1003.40
2022-11-05T06:39:44.468Z,1003.40
2022-11-05T06:40:44.370Z,1003.39
2022-11-05T06:42:16.629Z,1003.40
2022-11-05T06:42:44.397Z,1003.43
2022-11-05T06:43:44.347Z,1003.45
2022-11-05T06:44:44.351Z,1003.47
2022-11-05T06:45:44.346Z,1003.49
2022-11-05T06:46:48.364Z,1003.51
2022-11-05T06:47:44.320Z,1003.51
2022-11-05T06:48:44.301Z,1003.51
2022-11-05T06:49:44.310Z,1003.53
2022-11-05T06:50:44.281Z,1003.54
2022-11-05T06:51:44.279Z,1003.56
2022-11-05T06:52:44.253Z,1003.57
2022-11-05T06:53:44.258Z,1003.58
2022-11-05T06:54:44.235Z,1003.59
2022-11-05T06:55:44.242Z,1003.61
2022-11-05T06:56:44.241Z,1003.61
2022-11-05T06:57:44.233Z,1003.64
2022-11-05T06:58:44.191Z,1003.67
2022-11-05T06:59:44.195Z,1003.67
2022-11-05T07:00:44.301Z,1003.69
2022-11-05T07:01:44.411Z,1003.69
2022-11-05T07:02:44.152Z,1003.70
2022-11-05T07:03:44.143Z,1003.71
2022-11-05T07:04:44.137Z,1003.72
2022-11-05T07:05:44.167Z,1003.73
2022-11-05T07:06:44.140Z,1003.74
2022-11-05T07:07:44.104Z,1003.75
2022-11-05T07:08:44.097Z,1003.76
2022-11-05T07:09:44.083Z,1003.76
2022-11-05T07:10:44.078Z,1003.79
2022-11-05T07:11:44.120Z,1003.79
2022-11-05T07:12:44.045Z,1003.80
2022-11-05T07:13:44.047Z,1003.84
2022-11-05T07:14:44.052Z,1003.82
2022-11-05T07:15:44.012Z,1003.84
2022-11-05T07:16:44.041Z,1003.87
2022-11-05T07:17:44.108Z,1003.86
2022-11-05T07:18:44.070Z,1003.86
2022-11-05T07:19:43.977Z,1003.87
2022-11-05T07:20:44.016Z,1003.87
2022-11-05T07:21:44.025Z,1003.88
2022-11-05T07:22:43.945Z,1003.90
2022-11-05T07:23:43.943Z,1003.90
2022-11-05T07:24:43.919Z,1003.86
2022-11-05T07:25:43.923Z,1003.90
2022-11-05T07:26:43.890Z,1003.90
2022-11-05T07:27:43.919Z,1003.93
2022-11-05T07:28:43.877Z,1003.93
2022-11-05T07:29:43.881Z,1003.92
2022-11-05T07:30:43.861Z,1003.95
2022-11-05T07:31:43.926Z,1003.96
2022-11-05T07:32:43.855Z,1003.97
2022-11-05T07:33:43.856Z,1003.97
2022-11-05T07:34:43.915Z,1003.99
2022-11-05T07:35:43.810Z,1004.01
2022-11-05T07:36:43.818Z,1004.00
2022-11-05T07:37:43.803Z,1003.98
2022-11-05T07:38:43.772Z,1004.00
2022-11-05T07:39:43.779Z,1004.00
2022-11-05T07:40:43.873Z,1003.99
2022-11-05T07:41:43.755Z,1004.00
2022-11-05T07:42:43.773Z,1004.02
2022-11-05T07:43:43.721Z,1004.02
2022-11-05T07:44:43.711Z,1004.02
2022-11-05T07:45:43.717Z,1004.02
2022-11-05T07:46:43.692Z,1004.04
2022-11-05T07:47:43.708Z,1004.06
2022-11-05T07:48:43.681Z,1004.05
2022-11-05T07:49:43.674Z,1004.06
2022-11-05T07:50:43.656Z,1004.05
2022-11-05T07:51:43.638Z,1004.05
2022-11-05T07:52:43.647Z,1004.05
2022-11-05T07:53:45.537Z,1004.05
2022-11-05T07:54:43.616Z,1004.07
2022-11-05T07:55:43.607Z,1004.06
2022-11-05T07:56:43.587Z,1004.05
2022-11-05T07:57:43.598Z,1004.06
2022-11-05T07:58:43.581Z,1004.06
2022-11-05T07:59:43.561Z,1004.06
2022-11-05T08:00:43.740Z,1004.05
2022-11-05T08:01:43.840Z,1004.07
2022-11-05T08:02:43.645Z,1004.07
2022-11-05T08:03:43.609Z,1004.08
2022-11-05T08:04:43.505Z,1004.07
2022-11-05T08:05:43.505Z,1004.07
2022-11-05T08:06:43.486Z,1004.07
2022-11-05T08:07:43.482Z,1004.06
2022-11-05T08:08:43.510Z,1004.05
2022-11-05T08:09:43.463Z,1004.07
2022-11-05T08:10:43.477Z,1004.04
2022-11-05T08:11:43.439Z,1004.05
2022-11-05T08:12:43.420Z,1004.05
2022-11-05T08:13:43.471Z,1004.08
2022-11-05T08:14:43.391Z,1004.07
2022-11-05T08:15:43.392Z,1004.05
2022-11-05T08:16:43.382Z,1004.04
2022-11-05T08:17:43.367Z,1004.06
2022-11-05T08:18:43.358Z,1004.06
2022-11-05T08:19:43.375Z,1004.06
2022-11-05T08:20:43.352Z,1004.04
2022-11-05T08:21:43.329Z,1004.06
2022-11-05T08:22:43.332Z,1004.07
2022-11-05T08:23:43.317Z,1004.08
2022-11-05T08:24:43.296Z,1004.08
2022-11-05T08:25:43.290Z,1004.08
2022-11-05T08:26:43.274Z,1004.11
2022-11-05T08:27:43.278Z,1004.09
2022-11-05T08:28:43.278Z,1004.11
2022-11-05T08:29:43.277Z,1004.12
2022-11-05T08:30:43.225Z,1004.13
2022-11-05T08:31:43.237Z,1004.15
2022-11-05T08:32:43.216Z,1004.13
2022-11-05T08:33:43.217Z,1004.14
2022-11-05T08:34:43.177Z,1004.14
2022-11-05T08:35:43.207Z,1004.12
2022-11-05T08:36:43.181Z,1004.12
2022-11-05T08:37:43.168Z,1004.17
2022-11-05T08:38:43.163Z,1004.18
2022-11-05T08:39:43.150Z,1004.18
2022-11-05T08:40:43.146Z,1004.19
2022-11-05T08:41:43.116Z,1004.18
2022-11-05T08:42:43.091Z,1004.19
2022-11-05T08:43:43.096Z,1004.22
2022-11-05T08:44:43.084Z,1004.20
2022-11-05T08:45:43.095Z,1004.23
2022-11-05T08:46:43.060Z,1004.23
2022-11-05T08:47:43.083Z,1004.26
2022-11-05T08:48:43.080Z,1004.28
2022-11-05T08:49:43.054Z,1004.29
2022-11-05T08:50:43.030Z,1004.32
2022-11-05T08:51:43.016Z,1004.31
2022-11-05T08:52:42.998Z,1004.30
2022-11-05T08:53:42.999Z,1004.32
2022-11-05T08:54:42.987Z,1004.35
2022-11-05T08:55:43.000Z,1004.34
2022-11-05T08:56:43.021Z,1004.35
2022-11-05T08:57:43.019Z,1004.36
2022-11-05T08:58:42.933Z,1004.36
2022-11-05T08:59:42.933Z,1004.36
2022-11-05T09:00:42.958Z,1004.37
2022-11-05T09:01:43.119Z,1004.39
2022-11-05T09:02:43.002Z,1004.40
2022-11-05T09:03:42.931Z,1004.40
2022-11-05T09:04:42.902Z,1004.44
2022-11-05T09:05:42.881Z,1004.44
2022-11-05T09:06:42.882Z,1004.44
2022-11-05T09:07:42.836Z,1004.43
2022-11-05T09:08:42.843Z,1004.45
2022-11-05T09:09:42.835Z,1004.47
2022-11-05T09:10:42.805Z,1004.48
2022-11-05T09:12:10.459Z,1004.49
2022-11-05T09:12:42.789Z,1004.52
2022-11-05T09:13:42.794Z,1004.54
2022-11-05T09:14:42.758Z,1004.54
2022-11-05T09:15:42.755Z,1004.52
2022-11-05T09:16:42.763Z,1004.50
2022-11-05T09:17:42.740Z,1004.53
2022-11-05T09:18:42.735Z,1004.53
2022-11-05T09:19:42.823Z,1004.54
2022-11-05T09:20:42.702Z,1004.53
2022-11-05T09:21:42.702Z,1004.52
2022-11-05T09:22:43.610Z,1004.51
2022-11-05T09:23:42.679Z,1004.52
2022-11-05T09:24:42.669Z,1004.48
2022-11-05T09:25:42.655Z,1004.49
2022-11-05T09:26:42.653Z,1004.49
2022-11-05T09:27:42.692Z,1004.48
2022-11-05T09:28:42.611Z,1004.50
2022-11-05T09:29:42.625Z,1004.49
2022-11-05T09:30:42.596Z,1004.51
2022-11-05T09:31:42.612Z,1004.56
2022-11-05T09:32:42.618Z,1004.54
2022-11-05T09:33:42.609Z,1004.56
2022-11-05T09:34:42.540Z,1004.54
2022-11-05T09:35:42.541Z,1004.54
2022-11-05T09:36:42.557Z,1004.55
2022-11-05T09:37:42.535Z,1004.56
2022-11-05T09:38:42.516Z,1004.59
2022-11-05T09:39:42.498Z,1004.59
2022-11-05T09:40:42.491Z,1004.61
2022-11-05T09:41:42.497Z,1004.59
2022-11-05T09:42:42.477Z,1004.59
2022-11-05T09:43:42.465Z,1004.60
2022-11-05T09:44:42.447Z,1004.59
2022-11-05T09:45:42.436Z,1004.58
2022-11-05T09:46:42.424Z,1004.62
2022-11-05T09:47:42.465Z,1004.64
2022-11-05T09:48:42.414Z,1004.63
2022-11-05T09:49:42.399Z,1004.66
2022-11-05T09:50:42.371Z,1004.64
2022-11-05T09:51:42.371Z,1004.65
2022-11-05T09:52:42.377Z,1004.64
2022-11-05T09:53:42.361Z,1004.63
2022-11-05T09:54:42.334Z,1004.64
2022-11-05T09:55:42.336Z,1004.64
2022-11-05T09:56:42.311Z,1004.66
2022-11-05T09:57:42.313Z,1004.67
2022-11-05T09:58:42.299Z,1004.69
2022-11-05T09:59:42.290Z,1004.66
2022-11-05T10:00:42.344Z,1004.67
2022-11-05T10:01:42.377Z,1004.68
2022-11-05T10:02:42.330Z,1004.69
2022-11-05T10:03:42.256Z,1004.70
2022-11-05T10:04:42.224Z,1004.74
2022-11-05T10:05:42.350Z,1004.71
2022-11-05T10:06:42.202Z,1004.70
2022-11-05T10:07:42.240Z,1004.66
2022-11-05T10:08:42.188Z,1004.66
2022-11-05T10:09:42.180Z,1004.66
2022-11-05T10:10:42.161Z,1004.65
2022-11-05T10:11:42.152Z,1004.70
2022-11-05T10:12:42.143Z,1004.68
2022-11-05T10:13:42.167Z,1004.71
2022-11-05T10:14:42.108Z,1004.68
2022-11-05T10:15:42.113Z,1004.69
2022-11-05T10:16:42.103Z,1004.68
2022-11-05T10:17:42.176Z,1004.68
2022-11-05T10:18:42.077Z,1004.66
2022-11-05T10:19:42.092Z,1004.68
2022-11-05T10:20:42.049Z,1004.67
2022-11-05T10:22:05.579Z,1004.68
2022-11-05T10:22:46.617Z,1004.68
2022-11-05T10:23:42.037Z,1004.69
2022-11-05T10:24:42.022Z,1004.71
2022-11-05T10:25:42.031Z,1004.72
2022-11-05T10:26:41.996Z,1004.76
2022-11-05T10:27:41.980Z,1004.76
2022-11-05T10:28:41.966Z,1004.79
2022-11-05T10:29:41.983Z,1004.80
2022-11-05T10:30:41.958Z,1004.76
2022-11-05T10:31:41.930Z,1004.79
2022-11-05T10:32:41.942Z,1004.78
2022-11-05T10:33:41.922Z,1004.79
2022-11-05T10:34:41.935Z,1004.83
2022-11-05T10:35:41.921Z,1004.79
2022-11-05T10:36:41.891Z,1004.79
2022-11-05T10:37:41.867Z,1004.78
2022-11-05T10:38:41.876Z,1004.77
2022-11-05T10:39:41.855Z,1004.74
2022-11-05T10:40:41.854Z,1004.74
2022-11-05T10:41:41.827Z,1004.72
2022-11-05T10:42:41.823Z,1004.70
2022-11-05T10:43:41.805Z,1004.71
2022-11-05T10:44:41.832Z,1004.71
2022-11-05T10:45:41.780Z,1004.72
2022-11-05T10:46:41.787Z,1004.73
2022-11-05T10:47:41.795Z,1004.72
2022-11-05T10:48:43.913Z,1004.70
2022-11-05T10:49:41.749Z,1004.71
2022-11-05T10:50:41.794Z,1004.69
2022-11-05T10:51:41.718Z,1004.69
2022-11-05T10:52:41.729Z,1004.73
2022-11-05T10:53:41.699Z,1004.72
2022-11-05T10:54:41.704Z,1004.67
2022-11-05T10:55:41.674Z,1004.71
2022-11-05T10:56:41.665Z,1004.70
2022-11-05T10:57:41.653Z,1004.71
2022-11-05T10:58:41.673Z,1004.71
2022-11-05T10:59:41.632Z,1004.72
2022-11-05T11:00:41.678Z,1004.74
2022-11-05T11:01:41.723Z,1004.74
2022-11-05T11:02:41.620Z,1004.79
2022-11-05T11:03:41.604Z,1004.82
2022-11-05T11:04:41.577Z,1004.81
2022-11-05T11:05:41.567Z,1004.80
2022-11-05T11:06:41.565Z,1004.80
2022-11-05T11:07:41.564Z,1004.84
2022-11-05T11:08:41.545Z,1004.82
2022-11-05T11:09:41.520Z,1004.82
2022-11-05T11:10:41.526Z,1004.82
2022-11-05T11:11:41.510Z,1004.81
2022-11-05T11:12:41.508Z,1004.79
2022-11-05T11:13:41.497Z,1004.82
2022-11-05T11:14:41.488Z,1004.82
2022-11-05T11:15:41.463Z,1004.82
2022-11-05T11:16:41.466Z,1004.83
2022-11-05T11:17:41.436Z,1004.80
2022-11-05T11:18:41.568Z,1004.82
2022-11-05T11:19:41.423Z,1004.78
2022-11-05T11:20:41.414Z,1004.76
2022-11-05T11:21:41.394Z,1004.74
2022-11-05T11:22:41.397Z,1004.76
2022-11-05T11:23:41.385Z,1004.79
2022-11-05T11:24:41.389Z,1004.79
2022-11-05T11:25:41.363Z,1004.77
2022-11-05T11:26:41.358Z,1004.78
2022-11-05T11:27:41.365Z,1004.78
2022-11-05T11:28:41.356Z,1004.78
2022-11-05T11:29:45.202Z,1004.78
2022-11-05T11:30:41.347Z,1004.76
2022-11-05T11:31:41.290Z,1004.75
2022-11-05T11:32:41.288Z,1004.77
2022-11-05T11:33:41.270Z,1004.74
2022-11-05T11:34:41.302Z,1004.76
2022-11-05T11:35:41.328Z,1004.79
2022-11-05T11:36:41.278Z,1004.79
2022-11-05T11:37:41.224Z,1004.80
2022-11-05T11:38:41.224Z,1004.80
2022-11-05T11:39:41.229Z,1004.80
2022-11-05T11:40:41.241Z,1004.81
2022-11-05T11:41:41.240Z,1004.81
2022-11-05T11:42:41.205Z,1004.84
2022-11-05T11:43:41.200Z,1004.85
2022-11-05T11:44:41.186Z,1004.91
2022-11-05T11:45:41.129Z,1004.86
2022-11-05T11:46:41.160Z,1004.87
2022-11-05T11:47:41.130Z,1004.86
2022-11-05T11:48:41.107Z,1004.85
2022-11-05T11:49:41.106Z,1004.87
2022-11-05T11:50:41.088Z,1004.86
2022-11-05T11:51:41.093Z,1004.84
2022-11-05T11:52:41.073Z,1004.81
2022-11-05T11:53:41.063Z,1004.84
2022-11-05T11:54:41.061Z,1004.84
2022-11-05T11:55:41.041Z,1004.81
2022-11-05T11:56:41.051Z,1004.79
2022-11-05T11:57:41.142Z,1004.82
2022-11-05T11:58:41.012Z,1004.86
2022-11-05T12:00:07.124Z,1004.81
2022-11-05T12:00:40.984Z,1004.82
2022-11-05T12:01:41.065Z,1004.84
2022-11-05T12:02:41.056Z,1004.78
2022-11-05T12:03:40.954Z,1004.85
2022-11-05T12:04:40.934Z,1004.79
2022-11-05T12:05:40.937Z,1004.78